Terminal Aerodrome Forecast
Issued by NWS Omaha/Valley, NE

Home | Current Version | Previous Version | Text Only | Print | Product List | Glossary On
Versions: 1 2 3 4 5 6 7 8 9 10 11 12 13 14 15 16 17 18 19 20 21 22 23 24 25 26 27 28 29 30 31 32 33 34 35 36 37
000
FTUS43 KOAX 260537
TAFOFK
TAF
KOFK 260537Z 2606/2706 04007KT P6SM BKN090
     FM261900 09016KT P6SM VCSH BKN015
     FM270000 09014KT P6SM SHRA OVC015
     FM270500 09016KT 6SM SHRA OVC007=

USA.gov is the U.S. government's official web portal to all federal, state and local government web resources and services.